sensor_id;sensor_type;location;lat;lon;timestamp;temperature;humidity
71175;DHT22;58876;51.994;4.472;2023-02-28T00:00:12;4.13;73.33
71175;DHT22;58876;51.994;4.472;2023-02-28T00:02:42;4.14;73.14
71175;DHT22;58876;51.994;4.472;2023-02-28T00:05:10;4.20;73.36
71175;DHT22;58876;51.994;4.472;2023-02-28T00:07:36;4.24;73.45
71175;DHT22;58876;51.994;4.472;2023-02-28T00:10:04;4.27;73.60
71175;DHT22;58876;51.994;4.472;2023-02-28T00:12:31;4.36;73.44
71175;DHT22;58876;51.994;4.472;2023-02-28T00:14:57;4.37;73.03
71175;DHT22;58876;51.994;4.472;2023-02-28T00:17:22;4.30;73.22
71175;DHT22;58876;51.994;4.472;2023-02-28T00:19:48;4.34;73.38
71175;DHT22;58876;51.994;4.472;2023-02-28T00:22:15;4.37;73.40
71175;DHT22;58876;51.994;4.472;2023-02-28T00:24:40;4.44;73.18
71175;DHT22;58876;51.994;4.472;2023-02-28T00:27:06;4.44;73.01
71175;DHT22;58876;51.994;4.472;2023-02-28T00:29:31;4.60;72.77
71175;DHT22;58876;51.994;4.472;2023-02-28T00:31:57;4.64;72.42
71175;DHT22;58876;51.994;4.472;2023-02-28T00:34:22;4.64;72.62
71175;DHT22;58876;51.994;4.472;2023-02-28T00:36:47;4.68;72.48
71175;DHT22;58876;51.994;4.472;2023-02-28T00:39:16;4.78;72.37
71175;DHT22;58876;51.994;4.472;2023-02-28T00:41:42;4.82;72.61
71175;DHT22;58876;51.994;4.472;2023-02-28T00:44:07;4.92;72.33
71175;DHT22;58876;51.994;4.472;2023-02-28T00:46:33;4.91;72.31
71175;DHT22;58876;51.994;4.472;2023-02-28T00:48:58;5.02;72.25
71175;DHT22;58876;51.994;4.472;2023-02-28T00:51:24;5.02;71.83
71175;DHT22;58876;51.994;4.472;2023-02-28T00:53:49;5.05;71.89
71175;DHT22;58876;51.994;4.472;2023-02-28T00:56:15;5.08;71.69
71175;DHT22;58876;51.994;4.472;2023-02-28T00:58:40;5.06;71.79
71175;DHT22;58876;51.994;4.472;2023-02-28T01:01:06;5.11;71.77
71175;DHT22;58876;51.994;4.472;2023-02-28T01:03:32;5.15;71.69
71175;DHT22;58876;51.994;4.472;2023-02-28T01:05:57;5.19;71.67
71175;DHT22;58876;51.994;4.472;2023-02-28T01:08:23;5.27;71.38
71175;DHT22;58876;51.994;4.472;2023-02-28T01:10:49;5.27;71.05
71175;DHT22;58876;51.994;4.472;2023-02-28T01:13:15;5.29;71.06
71175;DHT22;58876;51.994;4.472;2023-02-28T01:15:45;5.27;71.08
71175;DHT22;58876;51.994;4.472;2023-02-28T01:18:11;5.19;71.72
71175;DHT22;58876;51.994;4.472;2023-02-28T01:20:38;5.23;71.35
71175;DHT22;58876;51.994;4.472;2023-02-28T01:23:03;5.25;71.87
71175;DHT22;58876;51.994;4.472;2023-02-28T01:25:28;5.26;71.61
71175;DHT22;58876;51.994;4.472;2023-02-28T01:27:54;5.27;71.73
71175;DHT22;58876;51.994;4.472;2023-02-28T01:30:19;5.33;71.41
71175;DHT22;58876;51.994;4.472;2023-02-28T01:32:45;5.36;71.54
71175;DHT22;58876;51.994;4.472;2023-02-28T01:35:11;5.36;71.18
71175;DHT22;58876;51.994;4.472;2023-02-28T01:37:36;5.36;71.24
71175;DHT22;58876;51.994;4.472;2023-02-28T01:40:03;5.43;70.93
71175;DHT22;58876;51.994;4.472;2023-02-28T01:42:28;5.40;71.23
71175;DHT22;58876;51.994;4.472;2023-02-28T01:45:23;5.40;71.44
71175;DHT22;58876;51.994;4.472;2023-02-28T01:47:54;5.36;71.23
71175;DHT22;58876;51.994;4.472;2023-02-28T01:50:25;5.40;71.29
71175;DHT22;58876;51.994;4.472;2023-02-28T01:52:55;5.40;71.24
71175;DHT22;58876;51.994;4.472;2023-02-28T01:55:23;5.44;71.09
71175;DHT22;58876;51.994;4.472;2023-02-28T01:57:57;5.43;70.89
71175;DHT22;58876;51.994;4.472;2023-02-28T02:00:26;5.32;71.63
71175;DHT22;58876;51.994;4.472;2023-02-28T02:03:03;5.27;71.83
71175;DHT22;58876;51.994;4.472;2023-02-28T02:05:30;5.23;72.11
71175;DHT22;58876;51.994;4.472;2023-02-28T02:08:02;5.27;72.00
71175;DHT22;58876;51.994;4.472;2023-02-28T02:10:55;5.32;72.04
71175;DHT22;58876;51.994;4.472;2023-02-28T02:16:37;5.37;72.15
71175;DHT22;58876;51.994;4.472;2023-02-28T02:25:55;5.37;72.83
71175;DHT22;58876;51.994;4.472;2023-02-28T02:29:00;5.37;72.70
71175;DHT22;58876;51.994;4.472;2023-02-28T02:37:25;5.33;73.41
71175;DHT22;58876;51.994;4.472;2023-02-28T02:40:10;5.25;73.60
71175;DHT22;58876;51.994;4.472;2023-02-28T02:47:51;5.40;73.23
71175;DHT22;58876;51.994;4.472;2023-02-28T02:50:26;5.43;73.13
71175;DHT22;58876;51.994;4.472;2023-02-28T02:52:59;5.36;73.42
71175;DHT22;58876;51.994;4.472;2023-02-28T02:55:26;5.36;73.79
71175;DHT22;58876;51.994;4.472;2023-02-28T02:58:06;5.37;73.76
71175;DHT22;58876;51.994;4.472;2023-02-28T03:00:38;5.42;73.36
71175;DHT22;58876;51.994;4.472;2023-02-28T03:03:08;5.40;73.38
71175;DHT22;58876;51.994;4.472;2023-02-28T03:05:48;5.47;73.17
71175;DHT22;58876;51.994;4.472;2023-02-28T03:08:14;5.50;73.03
71175;DHT22;58876;51.994;4.472;2023-02-28T03:10:42;5.56;72.89
71175;DHT22;58876;51.994;4.472;2023-02-28T03:13:15;5.63;72.70
71175;DHT22;58876;51.994;4.472;2023-02-28T03:21:21;5.81;72.30
71175;DHT22;58876;51.994;4.472;2023-02-28T03:23:57;5.83;72.27
71175;DHT22;58876;51.994;4.472;2023-02-28T03:26:27;5.83;72.30
71175;DHT22;58876;51.994;4.472;2023-02-28T03:31:37;5.87;72.38
71175;DHT22;58876;51.994;4.472;2023-02-28T03:34:10;5.85;72.63
71175;DHT22;58876;51.994;4.472;2023-02-28T03:36:44;5.87;72.54
71175;DHT22;58876;51.994;4.472;2023-02-28T03:39:24;5.81;72.95
71175;DHT22;58876;51.994;4.472;2023-02-28T03:42:07;5.79;73.28
71175;DHT22;58876;51.994;4.472;2023-02-28T03:44:41;5.79;73.17
71175;DHT22;58876;51.994;4.472;2023-02-28T03:47:14;5.78;73.29
71175;DHT22;58876;51.994;4.472;2023-02-28T03:49:54;5.79;73.71
71175;DHT22;58876;51.994;4.472;2023-02-28T03:52:24;5.83;73.62
71175;DHT22;58876;51.994;4.472;2023-02-28T03:54:56;5.85;73.93
71175;DHT22;58876;51.994;4.472;2023-02-28T03:57:36;5.93;73.82
71175;DHT22;58876;51.994;4.472;2023-02-28T04:00:10;5.90;73.72
71175;DHT22;58876;51.994;4.472;2023-02-28T04:02:37;5.94;73.81
71175;DHT22;58876;51.994;4.472;2023-02-28T04:05:02;5.95;73.70
71175;DHT22;58876;51.994;4.472;2023-02-28T04:07:29;6.01;73.60
71175;DHT22;58876;51.994;4.472;2023-02-28T04:09:56;5.99;73.47
71175;DHT22;58876;51.994;4.472;2023-02-28T04:12:21;6.04;73.48
71175;DHT22;58876;51.994;4.472;2023-02-28T04:14:49;5.98;73.35
71175;DHT22;58876;51.994;4.472;2023-02-28T04:17:14;6.06;73.50
71175;DHT22;58876;51.994;4.472;2023-02-28T04:19:40;6.08;73.73
71175;DHT22;58876;51.994;4.472;2023-02-28T04:22:06;6.02;73.74
71175;DHT22;58876;51.994;4.472;2023-02-28T04:24:31;6.02;73.79
71175;DHT22;58876;51.994;4.472;2023-02-28T04:26:58;5.99;73.80
71175;DHT22;58876;51.994;4.472;2023-02-28T04:29:26;5.93;73.76
71175;DHT22;58876;51.994;4.472;2023-02-28T04:31:53;5.97;73.96
71175;DHT22;58876;51.994;4.472;2023-02-28T04:34:20;5.97;73.91
71175;DHT22;58876;51.994;4.472;2023-02-28T04:36:47;6.01;73.82
71175;DHT22;58876;51.994;4.472;2023-02-28T04:39:15;5.98;73.85
71175;DHT22;58876;51.994;4.472;2023-02-28T04:41:41;5.97;73.61
71175;DHT22;58876;51.994;4.472;2023-02-28T04:44:06;5.94;73.77
71175;DHT22;58876;51.994;4.472;2023-02-28T04:46:32;5.91;73.93
71175;DHT22;58876;51.994;4.472;2023-02-28T04:48:57;5.91;74.11
71175;DHT22;58876;51.994;4.472;2023-02-28T04:51:23;5.88;73.98
71175;DHT22;58876;51.994;4.472;2023-02-28T04:53:49;5.91;73.63
71175;DHT22;58876;51.994;4.472;2023-02-28T04:56:16;5.95;73.30
71175;DHT22;58876;51.994;4.472;2023-02-28T04:58:43;5.94;73.43
71175;DHT22;58876;51.994;4.472;2023-02-28T05:01:22;5.88;73.59
71175;DHT22;58876;51.994;4.472;2023-02-28T05:03:48;5.88;73.67
71175;DHT22;58876;51.994;4.472;2023-02-28T05:06:14;5.93;73.47
71175;DHT22;58876;51.994;4.472;2023-02-28T05:08:40;5.90;72.70
71175;DHT22;58876;51.994;4.472;2023-02-28T05:11:12;5.84;72.74
71175;DHT22;58876;51.994;4.472;2023-02-28T05:13:38;5.66;72.99
71175;DHT22;58876;51.994;4.472;2023-02-28T05:16:04;5.61;72.45
71175;DHT22;58876;51.994;4.472;2023-02-28T05:18:29;5.54;72.05
71175;DHT22;58876;51.994;4.472;2023-02-28T05:20:55;5.56;72.01
71175;DHT22;58876;51.994;4.472;2023-02-28T05:23:22;5.56;71.89
71175;DHT22;58876;51.994;4.472;2023-02-28T05:25:48;5.54;71.80
71175;DHT22;58876;51.994;4.472;2023-02-28T05:28:14;5.57;71.82
71175;DHT22;58876;51.994;4.472;2023-02-28T05:30:39;5.61;71.70
71175;DHT22;58876;51.994;4.472;2023-02-28T05:33:05;5.64;71.17
71175;DHT22;58876;51.994;4.472;2023-02-28T05:35:31;5.61;71.19
71175;DHT22;58876;51.994;4.472;2023-02-28T05:37:57;5.58;70.85
71175;DHT22;58876;51.994;4.472;2023-02-28T05:40:22;5.56;70.55
71175;DHT22;58876;51.994;4.472;2023-02-28T05:42:50;5.51;70.47
71175;DHT22;58876;51.994;4.472;2023-02-28T05:45:15;5.51;70.64
71175;DHT22;58876;51.994;4.472;2023-02-28T05:47:42;5.51;70.75
71175;DHT22;58876;51.994;4.472;2023-02-28T05:50:08;5.53;70.49
71175;DHT22;58876;51.994;4.472;2023-02-28T05:52:36;5.56;70.18
71175;DHT22;58876;51.994;4.472;2023-02-28T05:55:01;5.56;69.79
71175;DHT22;58876;51.994;4.472;2023-02-28T05:57:26;5.60;69.81
71175;DHT22;58876;51.994;4.472;2023-02-28T05:59:52;5.56;69.60
71175;DHT22;58876;51.994;4.472;2023-02-28T06:02:18;5.56;69.71
71175;DHT22;58876;51.994;4.472;2023-02-28T06:04:44;5.57;69.94
71175;DHT22;58876;51.994;4.472;2023-02-28T06:07:10;5.44;70.14
71175;DHT22;58876;51.994;4.472;2023-02-28T06:09:36;5.40;71.01
71175;DHT22;58876;51.994;4.472;2023-02-28T06:12:05;5.33;71.58
71175;DHT22;58876;51.994;4.472;2023-02-28T06:14:33;5.32;71.67
71175;DHT22;58876;51.994;4.472;2023-02-28T06:17:00;5.32;71.56
71175;DHT22;58876;51.994;4.472;2023-02-28T06:19:26;5.33;71.62
71175;DHT22;58876;51.994;4.472;2023-02-28T06:21:53;5.27;71.66
71175;DHT22;58876;51.994;4.472;2023-02-28T06:24:23;5.00;71.93
71175;DHT22;58876;51.994;4.472;2023-02-28T06:26:50;4.88;72.01
71175;DHT22;58876;51.994;4.472;2023-02-28T06:29:16;4.79;72.20
71175;DHT22;58876;51.994;4.472;2023-02-28T06:31:45;4.81;72.18
71175;DHT22;58876;51.994;4.472;2023-02-28T06:34:11;4.69;72.00
71175;DHT22;58876;51.994;4.472;2023-02-28T06:36:41;4.51;71.94
71175;DHT22;58876;51.994;4.472;2023-02-28T06:39:07;4.51;72.56
71175;DHT22;58876;51.994;4.472;2023-02-28T06:41:34;4.51;72.42
71175;DHT22;58876;51.994;4.472;2023-02-28T06:44:12;4.54;72.65
71175;DHT22;58876;51.994;4.472;2023-02-28T06:46:42;4.55;72.17
71175;DHT22;58876;51.994;4.472;2023-02-28T06:49:08;4.60;72.09
71175;DHT22;58876;51.994;4.472;2023-02-28T06:51:35;4.60;71.11
71175;DHT22;58876;51.994;4.472;2023-02-28T06:54:01;4.57;70.90
71175;DHT22;58876;51.994;4.472;2023-02-28T06:56:26;4.48;70.32
71175;DHT22;58876;51.994;4.472;2023-02-28T06:58:52;4.47;70.81
71175;DHT22;58876;51.994;4.472;2023-02-28T07:01:18;4.46;70.69
71175;DHT22;58876;51.994;4.472;2023-02-28T07:03:44;4.51;71.00
71175;DHT22;58876;51.994;4.472;2023-02-28T07:06:10;4.47;69.68
71175;DHT22;58876;51.994;4.472;2023-02-28T07:08:36;4.43;70.65
71175;DHT22;58876;51.994;4.472;2023-02-28T07:11:03;4.43;71.23
71175;DHT22;58876;51.994;4.472;2023-02-28T07:13:28;4.30;71.79
71175;DHT22;58876;51.994;4.472;2023-02-28T07:15:58;4.16;73.15
71175;DHT22;58876;51.994;4.472;2023-02-28T07:18:23;4.07;74.16
71175;DHT22;58876;51.994;4.472;2023-02-28T07:20:49;3.93;75.38
71175;DHT22;58876;51.994;4.472;2023-02-28T07:23:15;3.78;76.40
71175;DHT22;58876;51.994;4.472;2023-02-28T07:25:40;3.68;77.11
71175;DHT22;58876;51.994;4.472;2023-02-28T07:28:06;3.69;78.00
71175;DHT22;58876;51.994;4.472;2023-02-28T07:30:31;3.68;78.15
71175;DHT22;58876;51.994;4.472;2023-02-28T07:32:56;3.62;78.58
71175;DHT22;58876;51.994;4.472;2023-02-28T07:35:22;3.61;78.58
71175;DHT22;58876;51.994;4.472;2023-02-28T07:37:48;3.61;78.92
71175;DHT22;58876;51.994;4.472;2023-02-28T07:40:14;3.65;79.05
71175;DHT22;58876;51.994;4.472;2023-02-28T07:42:41;3.68;78.89
71175;DHT22;58876;51.994;4.472;2023-02-28T07:45:09;3.71;78.86
71175;DHT22;58876;51.994;4.472;2023-02-28T07:47:38;3.78;78.69
71175;DHT22;58876;51.994;4.472;2023-02-28T07:50:05;3.78;78.47
71175;DHT22;58876;51.994;4.472;2023-02-28T07:52:30;3.76;78.53
71175;DHT22;58876;51.994;4.472;2023-02-28T07:54:57;3.82;78.33
71175;DHT22;58876;51.994;4.472;2023-02-28T07:57:22;3.82;78.34
71175;DHT22;58876;51.994;4.472;2023-02-28T07:59:48;3.79;78.05
71175;DHT22;58876;51.994;4.472;2023-02-28T08:02:15;3.75;78.24
71175;DHT22;58876;51.994;4.472;2023-02-28T08:04:42;3.76;78.25
71175;DHT22;58876;51.994;4.472;2023-02-28T08:07:07;3.75;78.47
71175;DHT22;58876;51.994;4.472;2023-02-28T08:09:33;3.74;78.07
71175;DHT22;58876;51.994;4.472;2023-02-28T08:11:59;3.75;78.17
71175;DHT22;58876;51.994;4.472;2023-02-28T08:14:25;3.81;78.30
71175;DHT22;58876;51.994;4.472;2023-02-28T08:16:51;3.86;78.51
71175;DHT22;58876;51.994;4.472;2023-02-28T08:19:16;3.90;78.53
71175;DHT22;58876;51.994;4.472;2023-02-28T08:21:41;3.92;78.61
71175;DHT22;58876;51.994;4.472;2023-02-28T08:24:07;3.90;78.56
71175;DHT22;58876;51.994;4.472;2023-02-28T08:26:32;3.93;78.60
71175;DHT22;58876;51.994;4.472;2023-02-28T08:28:58;3.93;78.03
71175;DHT22;58876;51.994;4.472;2023-02-28T08:31:24;3.93;78.60
71175;DHT22;58876;51.994;4.472;2023-02-28T08:33:49;3.93;78.76
71175;DHT22;58876;51.994;4.472;2023-02-28T08:36:17;4.05;78.61
71175;DHT22;58876;51.994;4.472;2023-02-28T08:38:43;4.13;78.64
71175;DHT22;58876;51.994;4.472;2023-02-28T08:41:11;4.24;78.04
71175;DHT22;58876;51.994;4.472;2023-02-28T08:43:37;4.24;77.94
71175;DHT22;58876;51.994;4.472;2023-02-28T08:46:03;4.16;78.05
71175;DHT22;58876;51.994;4.472;2023-02-28T08:48:30;4.17;78.08
71175;DHT22;58876;51.994;4.472;2023-02-28T08:50:57;4.17;78.07
71175;DHT22;58876;51.994;4.472;2023-02-28T08:53:23;4.18;77.95
71175;DHT22;58876;51.994;4.472;2023-02-28T08:56:00;4.10;77.99
71175;DHT22;58876;51.994;4.472;2023-02-28T08:58:25;4.02;78.59
71175;DHT22;58876;51.994;4.472;2023-02-28T09:00:52;3.97;79.17
71175;DHT22;58876;51.994;4.472;2023-02-28T09:03:18;4.00;79.35
71175;DHT22;58876;51.994;4.472;2023-02-28T09:06:00;3.90;79.57
71175;DHT22;58876;51.994;4.472;2023-02-28T09:08:28;3.87;79.92
71175;DHT22;58876;51.994;4.472;2023-02-28T09:10:54;3.92;79.91
71175;DHT22;58876;51.994;4.472;2023-02-28T09:13:22;3.99;79.87
71175;DHT22;58876;51.994;4.472;2023-02-28T09:15:47;4.11;79.53
71175;DHT22;58876;51.994;4.472;2023-02-28T09:18:13;4.23;79.47
71175;DHT22;58876;51.994;4.472;2023-02-28T09:20:40;4.33;79.18
71175;DHT22;58876;51.994;4.472;2023-02-28T09:23:08;4.34;78.63
71175;DHT22;58876;51.994;4.472;2023-02-28T09:25:34;4.48;78.90
71175;DHT22;58876;51.994;4.472;2023-02-28T09:27:59;4.62;78.61
71175;DHT22;58876;51.994;4.472;2023-02-28T09:30:25;4.82;78.45
71175;DHT22;58876;51.994;4.472;2023-02-28T09:32:50;4.79;77.69
71175;DHT22;58876;51.994;4.472;2023-02-28T09:35:22;4.75;77.90
71175;DHT22;58876;51.994;4.472;2023-02-28T09:37:49;4.82;77.82
71175;DHT22;58876;51.994;4.472;2023-02-28T09:40:16;4.85;77.87
71175;DHT22;58876;51.994;4.472;2023-02-28T09:42:50;5.02;77.94
71175;DHT22;58876;51.994;4.472;2023-02-28T09:45:27;5.22;77.47
71175;DHT22;58876;51.994;4.472;2023-02-28T09:47:57;5.37;77.58
71175;DHT22;58876;51.994;4.472;2023-02-28T09:50:38;5.53;77.32
71175;DHT22;58876;51.994;4.472;2023-02-28T09:53:22;5.75;77.29
71175;DHT22;58876;51.994;4.472;2023-02-28T09:55:56;5.84;75.73
71175;DHT22;58876;51.994;4.472;2023-02-28T09:58:33;5.87;75.62
71175;DHT22;58876;51.994;4.472;2023-02-28T10:01:25;5.81;75.31
71175;DHT22;58876;51.994;4.472;2023-02-28T10:06:49;5.50;74.34
71175;DHT22;58876;51.994;4.472;2023-02-28T10:09:24;5.40;74.69
71175;DHT22;58876;51.994;4.472;2023-02-28T10:11:53;5.25;75.00
71175;DHT22;58876;51.994;4.472;2023-02-28T10:14:23;5.27;74.97
71175;DHT22;58876;51.994;4.472;2023-02-28T10:19:21;5.44;74.22
71175;DHT22;58876;51.994;4.472;2023-02-28T10:22:02;5.36;74.23
71175;DHT22;58876;51.994;4.472;2023-02-28T10:24:43;5.39;74.38
71175;DHT22;58876;51.994;4.472;2023-02-28T10:29:57;5.63;72.78
71175;DHT22;58876;51.994;4.472;2023-02-28T10:32:35;5.64;72.00
71175;DHT22;58876;51.994;4.472;2023-02-28T10:35:14;5.64;72.68
71175;DHT22;58876;51.994;4.472;2023-02-28T10:37:42;5.75;72.11
71175;DHT22;58876;51.994;4.472;2023-02-28T10:45:38;5.57;68.96
71175;DHT22;58876;51.994;4.472;2023-02-28T10:55:36;6.45;69.45
71175;DHT22;58876;51.994;4.472;2023-02-28T10:58:01;6.74;68.29
71175;DHT22;58876;51.994;4.472;2023-02-28T11:00:34;7.03;66.69
71175;DHT22;58876;51.994;4.472;2023-02-28T11:03:29;7.00;64.45
71175;DHT22;58876;51.994;4.472;2023-02-28T11:05:55;7.15;65.66
71175;DHT22;58876;51.994;4.472;2023-02-28T11:08:21;7.45;66.69
71175;DHT22;58876;51.994;4.472;2023-02-28T11:10:54;7.73;64.00
71175;DHT22;58876;51.994;4.472;2023-02-28T11:13:24;7.79;63.63
71175;DHT22;58876;51.994;4.472;2023-02-28T11:15:54;7.84;60.96
71175;DHT22;58876;51.994;4.472;2023-02-28T11:21:05;7.86;60.23
71175;DHT22;58876;51.994;4.472;2023-02-28T11:23:34;7.77;58.30
71175;DHT22;58876;51.994;4.472;2023-02-28T11:26:04;7.66;57.13
71175;DHT22;58876;51.994;4.472;2023-02-28T11:28:41;7.67;60.11
71175;DHT22;58876;51.994;4.472;2023-02-28T11:33:51;7.70;54.51
71175;DHT22;58876;51.994;4.472;2023-02-28T11:36:24;7.55;57.64
71175;DHT22;58876;51.994;4.472;2023-02-28T11:38:50;7.61;52.99
71175;DHT22;58876;51.994;4.472;2023-02-28T11:42:02;7.63;53.05
71175;DHT22;58876;51.994;4.472;2023-02-28T11:47:31;7.53;51.67
71175;DHT22;58876;51.994;4.472;2023-02-28T11:53:01;7.49;53.08
71175;DHT22;58876;51.994;4.472;2023-02-28T11:55:39;7.49;49.83
71175;DHT22;58876;51.994;4.472;2023-02-28T11:58:27;7.70;50.69
71175;DHT22;58876;51.994;4.472;2023-02-28T12:19:40;9.12;48.23
71175;DHT22;58876;51.994;4.472;2023-02-28T12:22:23;9.34;45.25
71175;DHT22;58876;51.994;4.472;2023-02-28T12:25:13;9.50;47.25
71175;DHT22;58876;51.994;4.472;2023-02-28T12:27:48;9.61;43.84
71175;DHT22;58876;51.994;4.472;2023-02-28T12:30:32;9.61;46.50
71175;DHT22;58876;51.994;4.472;2023-02-28T12:33:07;9.79;46.96
71175;DHT22;58876;51.994;4.472;2023-02-28T12:35:37;9.74;46.13
71175;DHT22;58876;51.994;4.472;2023-02-28T12:38:34;9.44;43.39
71175;DHT22;58876;51.994;4.472;2023-02-28T12:41:01;9.43;43.33
71175;DHT22;58876;51.994;4.472;2023-02-28T12:43:34;9.59;48.03
71175;DHT22;58876;51.994;4.472;2023-02-28T12:46:15;9.43;43.18
71175;DHT22;58876;51.994;4.472;2023-02-28T12:49:04;9.34;43.84
71175;DHT22;58876;51.994;4.472;2023-02-28T12:51:32;9.37;48.32
71175;DHT22;58876;51.994;4.472;2023-02-28T13:10:20;9.38;40.68
71175;DHT22;58876;51.994;4.472;2023-02-28T13:12:51;9.52;42.63
71175;DHT22;58876;51.994;4.472;2023-02-28T13:15:24;9.81;41.64
71175;DHT22;58876;51.994;4.472;2023-02-28T13:17:53;10.23;46.00
71175;DHT22;58876;51.994;4.472;2023-02-28T13:20:23;10.20;39.01
71175;DHT22;58876;51.994;4.472;2023-02-28T13:22:53;9.85;39.50
71175;DHT22;58876;51.994;4.472;2023-02-28T13:27:54;9.89;39.25
71175;DHT22;58876;51.994;4.472;2023-02-28T13:35:46;10.34;39.68
71175;DHT22;58876;51.994;4.472;2023-02-28T13:38:16;10.57;41.22
71175;DHT22;58876;51.994;4.472;2023-02-28T13:40:42;10.54;39.74
71175;DHT22;58876;51.994;4.472;2023-02-28T13:43:09;10.56;40.83
71175;DHT22;58876;51.994;4.472;2023-02-28T13:45:35;10.20;37.79
71175;DHT22;58876;51.994;4.472;2023-02-28T13:48:27;9.98;39.33
71175;DHT22;58876;51.994;4.472;2023-02-28T13:50:52;10.12;41.88
71175;DHT22;58876;51.994;4.472;2023-02-28T13:53:34;10.42;38.25
71175;DHT22;58876;51.994;4.472;2023-02-28T13:56:23;11.28;38.56
71175;DHT22;58876;51.994;4.472;2023-02-28T14:01:46;12.93;39.79
71175;DHT22;58876;51.994;4.472;2023-02-28T14:04:33;13.10;31.95
71175;DHT22;58876;51.994;4.472;2023-02-28T14:07:06;12.83;35.78
71175;DHT22;58876;51.994;4.472;2023-02-28T14:09:40;12.39;38.31
71175;DHT22;58876;51.994;4.472;2023-02-28T14:15:34;11.90;39.93
71175;DHT22;58876;51.994;4.472;2023-02-28T14:18:05;11.73;36.21
71175;DHT22;58876;51.994;4.472;2023-02-28T14:20:36;11.52;38.77
71175;DHT22;58876;51.994;4.472;2023-02-28T14:23:14;11.04;38.64
71175;DHT22;58876;51.994;4.472;2023-02-28T14:31:40;11.05;40.16
71175;DHT22;58876;51.994;4.472;2023-02-28T14:34:35;10.65;38.78
71175;DHT22;58876;51.994;4.472;2023-02-28T14:37:03;10.72;39.76
71175;DHT22;58876;51.994;4.472;2023-02-28T14:39:31;10.82;42.22
71175;DHT22;58876;51.994;4.472;2023-02-28T14:41:57;10.74;40.49
71175;DHT22;58876;51.994;4.472;2023-02-28T14:44:29;10.82;39.54
71175;DHT22;58876;51.994;4.472;2023-02-28T14:46:58;10.65;39.78
71175;DHT22;58876;51.994;4.472;2023-02-28T14:49:35;10.36;39.66
71175;DHT22;58876;51.994;4.472;2023-02-28T14:52:15;10.14;43.96
71175;DHT22;58876;51.994;4.472;2023-02-28T14:54:41;10.56;43.86
71175;DHT22;58876;51.994;4.472;2023-02-28T14:57:31;10.80;39.39
71175;DHT22;58876;51.994;4.472;2023-02-28T15:02:35;10.87;38.09
71175;DHT22;58876;51.994;4.472;2023-02-28T15:05:27;10.88;37.53
71175;DHT22;58876;51.994;4.472;2023-02-28T15:10:28;10.59;37.75
71175;DHT22;58876;51.994;4.472;2023-02-28T15:12:57;10.39;37.79
71175;DHT22;58876;51.994;4.472;2023-02-28T15:15:38;10.05;37.59
71175;DHT22;58876;51.994;4.472;2023-02-28T15:18:06;9.91;39.09
71175;DHT22;58876;51.994;4.472;2023-02-28T15:20:35;9.83;38.62
71175;DHT22;58876;51.994;4.472;2023-02-28T15:23:04;9.86;40.60
71175;DHT22;58876;51.994;4.472;2023-02-28T15:25:29;9.98;41.20
71175;DHT22;58876;51.994;4.472;2023-02-28T15:27:56;10.10;41.43
71175;DHT22;58876;51.994;4.472;2023-02-28T15:30:31;9.99;40.04
71175;DHT22;58876;51.994;4.472;2023-02-28T15:35:38;9.86;40.55
71175;DHT22;58876;51.994;4.472;2023-02-28T15:38:17;9.61;37.11
71175;DHT22;58876;51.994;4.472;2023-02-28T15:40:46;9.50;37.97
71175;DHT22;58876;51.994;4.472;2023-02-28T15:43:30;9.57;38.31
71175;DHT22;58876;51.994;4.472;2023-02-28T15:48:33;9.93;40.84
71175;DHT22;58876;51.994;4.472;2023-02-28T15:51:08;10.22;39.73
71175;DHT22;58876;51.994;4.472;2023-02-28T15:53:50;9.85;39.12
71175;DHT22;58876;51.994;4.472;2023-02-28T15:56:25;9.52;41.49
71175;DHT22;58876;51.994;4.472;2023-02-28T15:59:02;9.54;40.41
71175;DHT22;58876;51.994;4.472;2023-02-28T16:01:29;9.40;40.99
71175;DHT22;58876;51.994;4.472;2023-02-28T16:03:59;9.35;40.77
71175;DHT22;58876;51.994;4.472;2023-02-28T16:06:42;9.22;41.87
71175;DHT22;58876;51.994;4.472;2023-02-28T16:09:13;9.28;42.96
71175;DHT22;58876;51.994;4.472;2023-02-28T16:11:48;9.33;44.57
71175;DHT22;58876;51.994;4.472;2023-02-28T16:14:17;9.57;43.91
71175;DHT22;58876;51.994;4.472;2023-02-28T16:16:50;9.93;43.94
71175;DHT22;58876;51.994;4.472;2023-02-28T16:19:17;10.01;43.55
71175;DHT22;58876;51.994;4.472;2023-02-28T16:21:42;10.02;43.13
71175;DHT22;58876;51.994;4.472;2023-02-28T16:24:08;9.75;44.16
71175;DHT22;58876;51.994;4.472;2023-02-28T16:26:34;9.40;45.16
71175;DHT22;58876;51.994;4.472;2023-02-28T16:29:03;9.26;45.24
71175;DHT22;58876;51.994;4.472;2023-02-28T16:31:29;8.85;46.64
71175;DHT22;58876;51.994;4.472;2023-02-28T16:33:55;8.71;47.40
71175;DHT22;58876;51.994;4.472;2023-02-28T16:36:23;8.69;47.65
71175;DHT22;58876;51.994;4.472;2023-02-28T16:38:51;8.54;47.83
71175;DHT22;58876;51.994;4.472;2023-02-28T16:41:23;8.55;48.00
71175;DHT22;58876;51.994;4.472;2023-02-28T16:43:52;8.34;49.13
71175;DHT22;58876;51.994;4.472;2023-02-28T16:46:19;8.07;49.86
71175;DHT22;58876;51.994;4.472;2023-02-28T16:48:46;8.11;49.58
71175;DHT22;58876;51.994;4.472;2023-02-28T16:51:17;8.01;50.03
71175;DHT22;58876;51.994;4.472;2023-02-28T16:53:43;7.90;49.86
71175;DHT22;58876;51.994;4.472;2023-02-28T16:56:17;7.74;51.45
71175;DHT22;58876;51.994;4.472;2023-02-28T16:58:43;7.74;51.52
71175;DHT22;58876;51.994;4.472;2023-02-28T17:01:09;7.53;51.45
71175;DHT22;58876;51.994;4.472;2023-02-28T17:03:34;7.44;52.34
71175;DHT22;58876;51.994;4.472;2023-02-28T17:06:02;7.44;53.16
71175;DHT22;58876;51.994;4.472;2023-02-28T17:08:28;7.39;53.30
71175;DHT22;58876;51.994;4.472;2023-02-28T17:10:55;7.24;53.14
71175;DHT22;58876;51.994;4.472;2023-02-28T17:13:20;7.16;53.64
71175;DHT22;58876;51.994;4.472;2023-02-28T17:15:47;7.04;54.32
71175;DHT22;58876;51.994;4.472;2023-02-28T17:18:18;7.03;54.43
71175;DHT22;58876;51.994;4.472;2023-02-28T17:20:45;6.97;54.78
71175;DHT22;58876;51.994;4.472;2023-02-28T17:23:11;6.87;54.59
71175;DHT22;58876;51.994;4.472;2023-02-28T17:25:36;6.83;54.71
71175;DHT22;58876;51.994;4.472;2023-02-28T17:28:02;6.77;55.18
71175;DHT22;58876;51.994;4.472;2023-02-28T17:30:28;6.79;55.50
71175;DHT22;58876;51.994;4.472;2023-02-28T17:32:55;6.67;55.57
71175;DHT22;58876;51.994;4.472;2023-02-28T17:35:20;6.64;55.83
71175;DHT22;58876;51.994;4.472;2023-02-28T17:37:46;6.58;56.07
71175;DHT22;58876;51.994;4.472;2023-02-28T17:40:17;6.50;56.68
71175;DHT22;58876;51.994;4.472;2023-02-28T17:42:43;6.49;56.87
71175;DHT22;58876;51.994;4.472;2023-02-28T17:45:10;6.46;56.47
71175;DHT22;58876;51.994;4.472;2023-02-28T17:47:35;6.42;56.79
71175;DHT22;58876;51.994;4.472;2023-02-28T17:50:01;6.35;57.11
71175;DHT22;58876;51.994;4.472;2023-02-28T17:52:26;6.26;57.06
71175;DHT22;58876;51.994;4.472;2023-02-28T17:54:51;6.22;57.44
71175;DHT22;58876;51.994;4.472;2023-02-28T17:57:17;6.22;57.89
71175;DHT22;58876;51.994;4.472;2023-02-28T17:59:43;6.18;57.64
71175;DHT22;58876;51.994;4.472;2023-02-28T18:02:12;6.15;58.02
71175;DHT22;58876;51.994;4.472;2023-02-28T18:04:38;6.15;57.86
71175;DHT22;58876;51.994;4.472;2023-02-28T18:07:03;6.08;57.90